sensor_id;sensor_type;location;lat;lon;timestamp;pressure;altitude;pressure_sealevel;temperature;humidity
50867;BME280;36839;51.946;21.002;2023-05-23T00:00:17;100144.51;;;8.92;100.00
50867;BME280;36839;51.946;21.002;2023-05-23T00:03:12;100145.79;;;8.90;100.00
50867;BME280;36839;51.946;21.002;2023-05-23T00:05:42;100145.42;;;8.91;100.00
50867;BME280;36839;51.946;21.002;2023-05-23T00:08:16;100140.96;;;8.91;100.00
50867;BME280;36839;51.946;21.002;2023-05-23T00:10:44;100140.34;;;8.90;100.00
50867;BME280;36839;51.946;21.002;2023-05-23T00:13:11;100138.39;;;8.88;100.00
50867;BME280;36839;51.946;21.002;2023-05-23T00:15:41;100139.00;;;8.82;100.00
50867;BME280;36839;51.946;21.002;2023-05-23T00:18:10;100141.65;;;8.77;100.00
50867;BME280;36839;51.946;21.002;2023-05-23T00:20:38;100142.23;;;8.74;100.00
50867;BME280;36839;51.946;21.002;2023-05-23T00:23:12;100142.13;;;8.70;100.00
50867;BME280;36839;51.946;21.002;2023-05-23T00:25:47;100141.61;;;8.68;100.00
50867;BME280;36839;51.946;21.002;2023-05-23T00:28:18;100139.53;;;8.63;100.00
50867;BME280;36839;51.946;21.002;2023-05-23T00:30:47;100141.29;;;8.57;100.00
50867;BME280;36839;51.946;21.002;2023-05-23T00:33:19;100138.56;;;8.54;100.00
50867;BME280;36839;51.946;21.002;2023-05-23T00:35:50;100140.06;;;8.52;100.00
50867;BME280;36839;51.946;21.002;2023-05-23T00:38:19;100138.45;;;8.51;100.00
50867;BME280;36839;51.946;21.002;2023-05-23T00:40:48;100137.90;;;8.49;100.00
50867;BME280;36839;51.946;21.002;2023-05-23T00:43:26;100141.77;;;8.46;100.00
50867;BME280;36839;51.946;21.002;2023-05-23T00:45:57;100143.05;;;8.43;100.00
50867;BME280;36839;51.946;21.002;2023-05-23T00:48:26;100139.92;;;8.38;100.00
50867;BME280;36839;51.946;21.002;2023-05-23T00:50:55;100137.50;;;8.32;100.00
50867;BME280;36839;51.946;21.002;2023-05-23T00:53:26;100137.51;;;8.28;100.00
50867;BME280;36839;51.946;21.002;2023-05-23T00:55:55;100139.02;;;8.25;100.00
50867;BME280;36839;51.946;21.002;2023-05-23T00:58:23;100140.02;;;8.23;100.00
50867;BME280;36839;51.946;21.002;2023-05-23T01:00:54;100137.64;;;8.20;100.00
50867;BME280;36839;51.946;21.002;2023-05-23T01:03:22;100138.66;;;8.18;100.00
50867;BME280;36839;51.946;21.002;2023-05-23T01:05:55;100140.29;;;8.16;100.00
50867;BME280;36839;51.946;21.002;2023-05-23T01:08:24;100140.95;;;8.13;100.00
50867;BME280;36839;51.946;21.002;2023-05-23T01:10:53;100140.83;;;8.12;100.00
50867;BME280;36839;51.946;21.002;2023-05-23T01:16:59;100137.63;;;8.10;100.00
50867;BME280;36839;51.946;21.002;2023-05-23T01:22:20;100139.20;;;8.05;100.00
50867;BME280;36839;51.946;21.002;2023-05-23T01:28:04;100140.27;;;7.93;100.00
50867;BME280;36839;51.946;21.002;2023-05-23T01:30:38;100139.87;;;7.92;100.00
50867;BME280;36839;51.946;21.002;2023-05-23T01:33:07;100141.99;;;7.90;100.00
50867;BME280;36839;51.946;21.002;2023-05-23T01:35:36;100141.28;;;7.87;100.00
50867;BME280;36839;51.946;21.002;2023-05-23T01:38:03;100136.88;;;7.81;100.00
50867;BME280;36839;51.946;21.002;2023-05-23T01:40:34;100131.55;;;7.78;100.00
50867;BME280;36839;51.946;21.002;2023-05-23T01:43:10;100130.21;;;7.77;100.00
50867;BME280;36839;51.946;21.002;2023-05-23T01:45:39;100129.69;;;7.76;100.00
50867;BME280;36839;51.946;21.002;2023-05-23T01:48:09;100129.94;;;7.73;100.00
50867;BME280;36839;51.946;21.002;2023-05-23T01:50:43;100130.81;;;7.68;100.00
50867;BME280;36839;51.946;21.002;2023-05-23T01:53:24;100130.95;;;7.63;100.00
50867;BME280;36839;51.946;21.002;2023-05-23T01:55:54;100127.52;;;7.58;100.00
50867;BME280;36839;51.946;21.002;2023-05-23T01:58:30;100124.11;;;7.54;100.00
50867;BME280;36839;51.946;21.002;2023-05-23T02:01:01;100120.84;;;7.51;100.00
50867;BME280;36839;51.946;21.002;2023-05-23T02:03:40;100120.59;;;7.47;100.00
50867;BME280;36839;51.946;21.002;2023-05-23T02:06:13;100117.77;;;7.45;100.00
50867;BME280;36839;51.946;21.002;2023-05-23T02:08:42;100115.45;;;7.44;100.00
50867;BME280;36839;51.946;21.002;2023-05-23T02:11:17;100111.91;;;7.42;100.00
50867;BME280;36839;51.946;21.002;2023-05-23T02:13:44;100113.16;;;7.41;100.00
50867;BME280;36839;51.946;21.002;2023-05-23T02:16:11;100109.96;;;7.40;100.00
50867;BME280;36839;51.946;21.002;2023-05-23T02:20:08;100105.80;;;7.39;100.00
50867;BME280;36839;51.946;21.002;2023-05-23T02:22:43;100107.46;;;7.31;100.00
50867;BME280;36839;51.946;21.002;2023-05-23T02:25:15;100107.22;;;7.27;100.00
50867;BME280;36839;51.946;21.002;2023-05-23T02:27:43;100110.17;;;7.21;100.00
50867;BME280;36839;51.946;21.002;2023-05-23T02:30:16;100109.95;;;7.18;100.00
50867;BME280;36839;51.946;21.002;2023-05-23T02:32:46;100111.60;;;7.16;100.00
50867;BME280;36839;51.946;21.002;2023-05-23T02:35:16;100114.36;;;7.15;100.00
50867;BME280;36839;51.946;21.002;2023-05-23T02:37:56;100111.08;;;7.17;100.00
50867;BME280;36839;51.946;21.002;2023-05-23T02:40:23;100107.61;;;7.17;100.00
50867;BME280;36839;51.946;21.002;2023-05-23T02:44:30;100096.80;;;7.17;100.00
50867;BME280;36839;51.946;21.002;2023-05-23T02:46:57;100099.45;;;7.14;100.00
50867;BME280;36839;51.946;21.002;2023-05-23T02:49:27;100098.70;;;7.12;100.00
50867;BME280;36839;51.946;21.002;2023-05-23T02:51:54;100103.67;;;7.14;100.00
50867;BME280;36839;51.946;21.002;2023-05-23T02:54:23;100099.95;;;7.14;100.00
50867;BME280;36839;51.946;21.002;2023-05-23T02:56:51;100098.52;;;7.15;100.00
50867;BME280;36839;51.946;21.002;2023-05-23T02:59:22;100095.25;;;7.17;100.00
50867;BME280;36839;51.946;21.002;2023-05-23T03:01:50;100094.86;;;7.20;100.00
50867;BME280;36839;51.946;21.002;2023-05-23T03:04:21;100092.42;;;7.26;100.00
50867;BME280;36839;51.946;21.002;2023-05-23T03:06:49;100092.79;;;7.29;100.00
50867;BME280;36839;51.946;21.002;2023-05-23T03:09:20;100095.27;;;7.32;100.00
50867;BME280;36839;51.946;21.002;2023-05-23T03:11:46;100098.61;;;7.31;100.00
50867;BME280;36839;51.946;21.002;2023-05-23T03:14:17;100100.86;;;7.31;100.00
50867;BME280;36839;51.946;21.002;2023-05-23T03:16:47;100094.24;;;7.37;100.00
50867;BME280;36839;51.946;21.002;2023-05-23T03:19:16;100095.32;;;7.47;100.00
50867;BME280;36839;51.946;21.002;2023-05-23T03:21:42;100095.20;;;7.54;100.00
50867;BME280;36839;51.946;21.002;2023-05-23T03:24:12;100096.95;;;7.61;100.00
50867;BME280;36839;51.946;21.002;2023-05-23T03:26:44;100096.88;;;7.68;100.00
50867;BME280;36839;51.946;21.002;2023-05-23T03:29:11;100099.79;;;7.76;100.00
50867;BME280;36839;51.946;21.002;2023-05-23T03:31:38;100096.50;;;7.85;100.00
50867;BME280;36839;51.946;21.002;2023-05-23T03:34:05;100096.70;;;7.92;100.00
50867;BME280;36839;51.946;21.002;2023-05-23T03:36:33;100100.55;;;8.01;100.00
50867;BME280;36839;51.946;21.002;2023-05-23T03:39:13;100098.59;;;8.13;100.00
50867;BME280;36839;51.946;21.002;2023-05-23T03:41:41;100096.15;;;8.21;100.00
50867;BME280;36839;51.946;21.002;2023-05-23T03:44:13;100093.73;;;8.30;100.00
50867;BME280;36839;51.946;21.002;2023-05-23T03:46:40;100097.71;;;8.40;100.00
50867;BME280;36839;51.946;21.002;2023-05-23T03:49:07;100096.23;;;8.50;100.00
50867;BME280;36839;51.946;21.002;2023-05-23T03:51:34;100095.23;;;8.60;100.00
50867;BME280;36839;51.946;21.002;2023-05-23T03:54:02;100094.92;;;8.69;100.00
50867;BME280;36839;51.946;21.002;2023-05-23T03:56:30;100092.71;;;8.79;100.00
50867;BME280;36839;51.946;21.002;2023-05-23T03:58:57;100088.54;;;8.87;100.00
50867;BME280;36839;51.946;21.002;2023-05-23T04:01:25;100088.58;;;8.98;100.00
50867;BME280;36839;51.946;21.002;2023-05-23T04:03:53;100089.22;;;9.11;100.00
50867;BME280;36839;51.946;21.002;2023-05-23T04:06:21;100086.51;;;9.24;100.00
50867;BME280;36839;51.946;21.002;2023-05-23T04:08:50;100087.96;;;9.35;100.00
50867;BME280;36839;51.946;21.002;2023-05-23T04:11:18;100086.49;;;9.47;100.00
50867;BME280;36839;51.946;21.002;2023-05-23T04:13:45;100085.91;;;9.59;100.00
50867;BME280;36839;51.946;21.002;2023-05-23T04:16:13;100085.08;;;9.68;100.00
50867;BME280;36839;51.946;21.002;2023-05-23T04:18:41;100085.52;;;9.81;100.00
50867;BME280;36839;51.946;21.002;2023-05-23T04:22:19;100081.98;;;10.01;100.00
50867;BME280;36839;51.946;21.002;2023-05-23T04:24:48;100081.23;;;10.14;100.00
50867;BME280;36839;51.946;21.002;2023-05-23T04:27:17;100082.36;;;10.27;100.00
50867;BME280;36839;51.946;21.002;2023-05-23T04:29:48;100081.23;;;10.40;100.00
50867;BME280;36839;51.946;21.002;2023-05-23T04:32:22;100082.65;;;10.50;100.00
50867;BME280;36839;51.946;21.002;2023-05-23T04:34:53;100078.52;;;10.63;100.00
50867;BME280;36839;51.946;21.002;2023-05-23T04:37:23;100081.52;;;10.74;100.00
50867;BME280;36839;51.946;21.002;2023-05-23T04:39:52;100078.98;;;10.85;100.00
50867;BME280;36839;51.946;21.002;2023-05-23T04:42:24;100081.52;;;10.97;100.00
50867;BME280;36839;51.946;21.002;2023-05-23T04:44:52;100080.42;;;11.11;100.00
50867;BME280;36839;51.946;21.002;2023-05-23T04:47:27;100080.30;;;11.26;100.00
50867;BME280;36839;51.946;21.002;2023-05-23T04:50:01;100083.59;;;11.39;100.00
50867;BME280;36839;51.946;21.002;2023-05-23T04:52:29;100080.86;;;11.53;100.00
50867;BME280;36839;51.946;21.002;2023-05-23T04:55:03;100080.83;;;11.67;100.00
50867;BME280;36839;51.946;21.002;2023-05-23T04:57:38;100072.99;;;11.82;100.00
50867;BME280;36839;51.946;21.002;2023-05-23T05:00:07;100080.38;;;11.94;100.00
50867;BME280;36839;51.946;21.002;2023-05-23T05:02:43;100074.95;;;12.07;100.00
50867;BME280;36839;51.946;21.002;2023-05-23T05:05:13;100073.83;;;12.20;100.00
50867;BME280;36839;51.946;21.002;2023-05-23T05:07:44;100067.49;;;12.36;100.00
50867;BME280;36839;51.946;21.002;2023-05-23T05:10:14;100067.73;;;12.51;100.00
50867;BME280;36839;51.946;21.002;2023-05-23T05:12:47;100065.56;;;12.68;100.00
50867;BME280;36839;51.946;21.002;2023-05-23T05:15:17;100062.45;;;12.85;100.00
50867;BME280;36839;51.946;21.002;2023-05-23T05:17:46;100057.20;;;13.03;100.00
50867;BME280;36839;51.946;21.002;2023-05-23T05:20:13;100059.31;;;13.22;100.00
50867;BME280;36839;51.946;21.002;2023-05-23T05:22:40;100055.95;;;13.40;100.00
50867;BME280;36839;51.946;21.002;2023-05-23T05:25:09;100053.55;;;13.56;100.00
50867;BME280;36839;51.946;21.002;2023-05-23T05:27:38;100051.40;;;13.74;100.00
50867;BME280;36839;51.946;21.002;2023-05-23T05:30:10;100048.08;;;13.92;100.00
50867;BME280;36839;51.946;21.002;2023-05-23T05:32:52;100040.78;;;14.10;100.00
50867;BME280;36839;51.946;21.002;2023-05-23T05:35:31;100046.48;;;14.28;100.00
50867;BME280;36839;51.946;21.002;2023-05-23T05:37:59;100040.75;;;14.45;100.00
50867;BME280;36839;51.946;21.002;2023-05-23T05:40:26;100043.11;;;14.63;100.00
50867;BME280;36839;51.946;21.002;2023-05-23T05:42:54;100040.33;;;14.78;100.00
50867;BME280;36839;51.946;21.002;2023-05-23T05:45:24;100038.05;;;14.94;100.00
50867;BME280;36839;51.946;21.002;2023-05-23T05:48:04;100043.76;;;15.12;100.00
50867;BME280;36839;51.946;21.002;2023-05-23T05:50:32;100049.70;;;15.31;100.00
50867;BME280;36839;51.946;21.002;2023-05-23T05:52:59;100042.70;;;15.47;100.00
50867;BME280;36839;51.946;21.002;2023-05-23T05:55:25;100040.11;;;15.62;100.00
50867;BME280;36839;51.946;21.002;2023-05-23T05:57:55;100039.86;;;15.78;100.00
50867;BME280;36839;51.946;21.002;2023-05-23T06:00:22;100036.70;;;15.97;100.00
50867;BME280;36839;51.946;21.002;2023-05-23T06:02:50;100029.58;;;16.14;100.00
50867;BME280;36839;51.946;21.002;2023-05-23T06:05:18;100029.34;;;16.30;100.00
50867;BME280;36839;51.946;21.002;2023-05-23T06:07:49;100029.59;;;16.46;99.92
50867;BME280;36839;51.946;21.002;2023-05-23T06:10:19;100030.40;;;16.61;97.94
50867;BME280;36839;51.946;21.002;2023-05-23T06:12:47;100032.80;;;16.76;98.19
50867;BME280;36839;51.946;21.002;2023-05-23T06:15:15;100029.51;;;16.90;96.49
50867;BME280;36839;51.946;21.002;2023-05-23T06:17:43;100027.31;;;17.04;96.49
50867;BME280;36839;51.946;21.002;2023-05-23T06:20:13;100025.56;;;17.18;96.04
50867;BME280;36839;51.946;21.002;2023-05-23T06:22:44;100026.20;;;17.31;93.72
50867;BME280;36839;51.946;21.002;2023-05-23T06:25:18;100020.23;;;17.44;88.35
50867;BME280;36839;51.946;21.002;2023-05-23T06:27:48;100022.57;;;17.58;87.85
50867;BME280;36839;51.946;21.002;2023-05-23T06:30:19;100020.07;;;17.70;84.72
50867;BME280;36839;51.946;21.002;2023-05-23T06:32:59;100020.52;;;17.87;84.77
50867;BME280;36839;51.946;21.002;2023-05-23T06:35:32;100014.39;;;18.01;82.86
50867;BME280;36839;51.946;21.002;2023-05-23T06:38:07;100013.77;;;18.16;81.39
50867;BME280;36839;51.946;21.002;2023-05-23T06:40:35;100010.70;;;18.28;79.39
50867;BME280;36839;51.946;21.002;2023-05-23T06:43:07;100007.15;;;18.40;77.19
50867;BME280;36839;51.946;21.002;2023-05-23T06:45:37;100002.42;;;18.53;73.56
50867;BME280;36839;51.946;21.002;2023-05-23T06:48:13;99999.05;;;18.64;72.25
50867;BME280;36839;51.946;21.002;2023-05-23T06:50:43;100000.08;;;18.74;70.69
50867;BME280;36839;51.946;21.002;2023-05-23T06:53:12;100001.19;;;18.83;67.23
50867;BME280;36839;51.946;21.002;2023-05-23T06:55:41;100002.26;;;18.93;68.34
50867;BME280;36839;51.946;21.002;2023-05-23T06:58:09;99996.35;;;19.04;68.26
50867;BME280;36839;51.946;21.002;2023-05-23T07:00:38;99996.17;;;19.16;67.69
50867;BME280;36839;51.946;21.002;2023-05-23T07:03:07;99997.39;;;19.25;66.96
50867;BME280;36839;51.946;21.002;2023-05-23T07:05:36;99993.48;;;19.37;68.55
50867;BME280;36839;51.946;21.002;2023-05-23T07:08:07;99989.63;;;19.50;66.47
50867;BME280;36839;51.946;21.002;2023-05-23T07:10:43;99986.49;;;19.66;67.35
50867;BME280;36839;51.946;21.002;2023-05-23T07:13:13;99986.95;;;19.81;63.77
50867;BME280;36839;51.946;21.002;2023-05-23T07:15:40;99986.55;;;19.93;62.54
50867;BME280;36839;51.946;21.002;2023-05-23T07:18:08;99983.77;;;20.01;62.11
50867;BME280;36839;51.946;21.002;2023-05-23T07:20:38;99981.70;;;20.09;59.69
50867;BME280;36839;51.946;21.002;2023-05-23T07:23:09;99972.92;;;20.20;60.80
50867;BME280;36839;51.946;21.002;2023-05-23T07:27:55;99971.96;;;20.43;58.42
50867;BME280;36839;51.946;21.002;2023-05-23T07:30:27;99975.89;;;20.49;56.51
50867;BME280;36839;51.946;21.002;2023-05-23T07:32:53;99974.33;;;20.58;58.20
50867;BME280;36839;51.946;21.002;2023-05-23T07:35:21;99968.14;;;20.64;55.77
50867;BME280;36839;51.946;21.002;2023-05-23T07:37:58;99966.04;;;20.73;55.20
50867;BME280;36839;51.946;21.002;2023-05-23T07:40:25;99966.14;;;20.80;53.63
50867;BME280;36839;51.946;21.002;2023-05-23T07:42:55;99962.73;;;20.88;54.09
50867;BME280;36839;51.946;21.002;2023-05-23T07:45:22;99961.73;;;20.91;51.52
50867;BME280;36839;51.946;21.002;2023-05-23T07:47:49;99962.09;;;20.94;51.38
50867;BME280;36839;51.946;21.002;2023-05-23T07:50:17;99960.23;;;20.96;51.06
50867;BME280;36839;51.946;21.002;2023-05-23T07:52:47;99958.30;;;21.03;51.65
50867;BME280;36839;51.946;21.002;2023-05-23T07:55:17;99950.48;;;21.06;51.58
50867;BME280;36839;51.946;21.002;2023-05-23T07:57:48;99950.62;;;21.12;51.66
50867;BME280;36839;51.946;21.002;2023-05-23T08:00:19;99951.91;;;21.20;52.15
50867;BME280;36839;51.946;21.002;2023-05-23T08:02:48;99951.54;;;21.24;50.42
50867;BME280;36839;51.946;21.002;2023-05-23T08:05:20;99951.80;;;21.36;52.54
50867;BME280;36839;51.946;21.002;2023-05-23T08:07:48;99947.96;;;21.46;52.28
50867;BME280;36839;51.946;21.002;2023-05-23T08:10:17;99949.81;;;21.55;51.91
50867;BME280;36839;51.946;21.002;2023-05-23T08:12:43;99944.98;;;21.67;51.58
50867;BME280;36839;51.946;21.002;2023-05-23T08:15:14;99945.73;;;21.76;50.09
50867;BME280;36839;51.946;21.002;2023-05-23T08:17:41;99946.69;;;21.85;51.22
50867;BME280;36839;51.946;21.002;2023-05-23T08:20:10;99944.41;;;21.92;49.59
50867;BME280;36839;51.946;21.002;2023-05-23T08:22:39;99943.27;;;21.93;48.37
50867;BME280;36839;51.946;21.002;2023-05-23T08:25:07;99942.27;;;21.96;48.25
50867;BME280;36839;51.946;21.002;2023-05-23T08:27:36;99937.73;;;22.02;49.29
50867;BME280;36839;51.946;21.002;2023-05-23T08:30:04;99938.88;;;22.07;48.16
50867;BME280;36839;51.946;21.002;2023-05-23T08:32:37;99934.91;;;22.16;46.57
50867;BME280;36839;51.946;21.002;2023-05-23T08:35:05;99931.42;;;22.21;45.87
50867;BME280;36839;51.946;21.002;2023-05-23T08:37:32;99931.64;;;22.25;45.71
50867;BME280;36839;51.946;21.002;2023-05-23T08:40:03;99931.52;;;22.30;42.83
50867;BME280;36839;51.946;21.002;2023-05-23T08:42:34;99930.19;;;22.41;44.22
50867;BME280;36839;51.946;21.002;2023-05-23T08:45:02;99925.20;;;22.46;43.77
50867;BME280;36839;51.946;21.002;2023-05-23T08:47:31;99922.24;;;22.49;42.96
50867;BME280;36839;51.946;21.002;2023-05-23T08:50:00;99925.96;;;22.59;44.53
50867;BME280;36839;51.946;21.002;2023-05-23T08:52:37;99920.52;;;22.71;44.01
50867;BME280;36839;51.946;21.002;2023-05-23T08:55:16;99916.56;;;22.82;43.24
50867;BME280;36839;51.946;21.002;2023-05-23T08:57:47;99920.77;;;22.94;44.54
50867;BME280;36839;51.946;21.002;2023-05-23T09:00:15;99920.70;;;23.00;42.50
50867;BME280;36839;51.946;21.002;2023-05-23T09:02:56;99915.90;;;23.04;41.59
50867;BME280;36839;51.946;21.002;2023-05-23T09:08:26;99919.77;;;23.28;40.98
50867;BME280;36839;51.946;21.002;2023-05-23T09:10:56;99914.34;;;23.27;38.83
50867;BME280;36839;51.946;21.002;2023-05-23T09:13:24;99911.91;;;23.30;39.75
50867;BME280;36839;51.946;21.002;2023-05-23T09:16:03;99916.59;;;23.39;41.73
50867;BME280;36839;51.946;21.002;2023-05-23T09:18:36;99915.34;;;23.54;42.14
50867;BME280;36839;51.946;21.002;2023-05-23T09:21:10;99914.89;;;23.60;39.74
50867;BME280;36839;51.946;21.002;2023-05-23T09:23:41;99913.98;;;23.66;39.16
50867;BME280;36839;51.946;21.002;2023-05-23T09:26:10;99915.16;;;23.61;38.94
50867;BME280;36839;51.946;21.002;2023-05-23T09:28:40;99912.65;;;23.64;38.54
50867;BME280;36839;51.946;21.002;2023-05-23T09:31:08;99907.27;;;23.69;38.12
50867;BME280;36839;51.946;21.002;2023-05-23T09:33:44;99903.77;;;23.67;38.58
50867;BME280;36839;51.946;21.002;2023-05-23T09:36:14;99902.87;;;23.67;38.26
50867;BME280;36839;51.946;21.002;2023-05-23T09:38:45;99903.79;;;23.75;38.72
50867;BME280;36839;51.946;21.002;2023-05-23T09:41:22;99900.10;;;23.82;38.37
50867;BME280;36839;51.946;21.002;2023-05-23T09:43:54;99893.73;;;23.89;38.65
50867;BME280;36839;51.946;21.002;2023-05-23T09:46:29;99892.31;;;23.90;40.25
50867;BME280;36839;51.946;21.002;2023-05-23T09:48:58;99887.23;;;23.84;38.80
50867;BME280;36839;51.946;21.002;2023-05-23T09:52:01;99889.33;;;23.90;40.32
50867;BME280;36839;51.946;21.002;2023-05-23T09:54:32;99887.40;;;24.12;39.32
50867;BME280;36839;51.946;21.002;2023-05-23T09:57:01;99890.05;;;24.27;39.49
50867;BME280;36839;51.946;21.002;2023-05-23T09:59:34;99893.05;;;24.41;40.03
50867;BME280;36839;51.946;21.002;2023-05-23T10:02:06;99890.19;;;24.59;40.40
50867;BME280;36839;51.946;21.002;2023-05-23T10:04:34;99894.14;;;24.71;39.53
50867;BME280;36839;51.946;21.002;2023-05-23T10:07:13;99892.92;;;24.87;39.78
50867;BME280;36839;51.946;21.002;2023-05-23T10:09:53;99889.54;;;25.04;39.06
50867;BME280;36839;51.946;21.002;2023-05-23T10:12:53;99892.67;;;25.03;37.90
50867;BME280;36839;51.946;21.002;2023-05-23T10:15:34;99889.60;;;24.91;36.68
50867;BME280;36839;51.946;21.002;2023-05-23T10:18:27;99885.54;;;24.94;34.41
50867;BME280;36839;51.946;21.002;2023-05-23T10:21:17;99888.34;;;25.01;35.30
50867;BME280;36839;51.946;21.002;2023-05-23T10:23:45;99881.89;;;25.14;35.62
50867;BME280;36839;51.946;21.002;2023-05-23T10:26:18;99884.02;;;25.30;35.90
50867;BME280;36839;51.946;21.002;2023-05-23T10:28:46;99881.56;;;25.18;34.56
50867;BME280;36839;51.946;21.002;2023-05-23T10:31:17;99880.23;;;25.25;35.26
50867;BME280;36839;51.946;21.002;2023-05-23T10:33:57;99880.33;;;25.36;34.69
50867;BME280;36839;51.946;21.002;2023-05-23T10:37:02;99878.45;;;25.59;35.43
50867;BME280;36839;51.946;21.002;2023-05-23T10:39:53;99877.73;;;25.83;35.86
50867;BME280;36839;51.946;21.002;2023-05-23T10:45:41;99869.38;;;25.57;32.51
50867;BME280;36839;51.946;21.002;2023-05-23T10:48:43;99868.65;;;25.48;33.13
50867;BME280;36839;51.946;21.002;2023-05-23T10:51:14;99869.32;;;25.44;34.08
50867;BME280;36839;51.946;21.002;2023-05-23T10:53:54;99875.74;;;25.47;34.90
50867;BME280;36839;51.946;21.002;2023-05-23T10:56:23;99870.17;;;25.51;34.16
50867;BME280;36839;51.946;21.002;2023-05-23T10:58:55;99870.38;;;25.54;34.58
50867;BME280;36839;51.946;21.002;2023-05-23T11:01:26;99866.52;;;25.60;34.16
50867;BME280;36839;51.946;21.002;2023-05-23T11:03:55;99861.83;;;25.66;33.43
50867;BME280;36839;51.946;21.002;2023-05-23T11:06:41;99862.35;;;25.58;33.68
50867;BME280;36839;51.946;21.002;2023-05-23T11:09:17;99856.38;;;25.53;34.96
50867;BME280;36839;51.946;21.002;2023-05-23T11:12:06;99852.02;;;25.64;34.05
50867;BME280;36839;51.946;21.002;2023-05-23T11:18:03;99848.86;;;25.89;34.93
50867;BME280;36839;51.946;21.002;2023-05-23T11:20:35;99846.56;;;25.86;33.06
50867;BME280;36839;51.946;21.002;2023-05-23T11:23:07;99846.40;;;26.04;34.79
50867;BME280;36839;51.946;21.002;2023-05-23T11:25:55;99847.40;;;26.19;33.68
50867;BME280;36839;51.946;21.002;2023-05-23T11:28:25;99841.44;;;26.33;33.24
50867;BME280;36839;51.946;21.002;2023-05-23T11:30:59;99838.94;;;26.45;33.58
50867;BME280;36839;51.946;21.002;2023-05-23T11:33:37;99838.30;;;26.53;32.90
50867;BME280;36839;51.946;21.002;2023-05-23T11:36:14;99838.02;;;26.72;34.39
50867;BME280;36839;51.946;21.002;2023-05-23T11:38:45;99834.10;;;26.76;32.36
50867;BME280;36839;51.946;21.002;2023-05-23T11:41:15;99829.08;;;26.60;31.22
50867;BME280;36839;51.946;21.002;2023-05-23T11:43:53;99828.55;;;26.36;31.54
50867;BME280;36839;51.946;21.002;2023-05-23T11:46:22;99827.08;;;26.10;32.01
50867;BME280;36839;51.946;21.002;2023-05-23T11:48:49;99826.27;;;25.76;31.77
50867;BME280;36839;51.946;21.002;2023-05-23T11:51:18;99819.58;;;25.40;31.76
50867;BME280;36839;51.946;21.002;2023-05-23T11:53:50;99818.75;;;25.24;32.65
50867;BME280;36839;51.946;21.002;2023-05-23T11:56:27;99816.88;;;25.13;32.62
50867;BME280;36839;51.946;21.002;2023-05-23T11:59:04;99816.40;;;25.14;33.02
50867;BME280;36839;51.946;21.002;2023-05-23T12:01:30;99814.73;;;25.25;32.88
50867;BME280;36839;51.946;21.002;2023-05-23T12:04:08;99818.07;;;25.53;32.58
50867;BME280;36839;51.946;21.002;2023-05-23T12:06:41;99817.45;;;25.75;32.22
50867;BME280;36839;51.946;21.002;2023-05-23T12:09:10;99817.16;;;26.07;32.01
50867;BME280;36839;51.946;21.002;2023-05-23T12:11:47;99819.06;;;26.29;31.23
50867;BME280;36839;51.946;21.002;2023-05-23T12:14:33;99821.13;;;26.44;29.87
50867;BME280;36839;51.946;21.002;2023-05-23T12:17:18;99816.73;;;26.57;29.08
50867;BME280;36839;51.946;21.002;2023-05-23T12:19:51;99816.33;;;26.56;29.41
50867;BME280;36839;51.946;21.002;2023-05-23T12:22:35;99814.45;;;26.64;29.40
50867;BME280;36839;51.946;21.002;2023-05-23T12:25:12;99814.04;;;26.54;29.77
50867;BME280;36839;51.946;21.002;2023-05-23T12:27:53;99816.04;;;26.45;29.94
50867;BME280;36839;51.946;21.002;2023-05-23T12:30:44;99808.23;;;26.72;30.55
50867;BME280;36839;51.946;21.002;2023-05-23T12:33:17;99809.66;;;27.10;31.82
50867;BME280;36839;51.946;21.002;2023-05-23T12:36:00;99804.95;;;27.28;29.74
50867;BME280;36839;51.946;21.002;2023-05-23T12:38:37;99804.11;;;27.48;30.59
50867;BME280;36839;51.946;21.002;2023-05-23T12:41:21;99799.07;;;27.77;30.39
50867;BME280;36839;51.946;21.002;2023-05-23T12:43:52;99798.64;;;28.04;31.31
50867;BME280;36839;51.946;21.002;2023-05-23T12:46:20;99793.41;;;28.14;30.18
50867;BME280;36839;51.946;21.002;2023-05-23T12:48:50;99794.71;;;28.33;29.74
50867;BME280;36839;51.946;21.002;2023-05-23T12:51:20;99791.42;;;28.46;27.41
50867;BME280;36839;51.946;21.002;2023-05-23T12:53:56;99788.59;;;28.49;27.82
50867;BME280;36839;51.946;21.002;2023-05-23T12:56:26;99790.14;;;28.47;28.03
50867;BME280;36839;51.946;21.002;2023-05-23T12:58:56;99783.73;;;28.47;28.65
50867;BME280;36839;51.946;21.002;2023-05-23T13:01:27;99783.79;;;28.43;28.48
50867;BME280;36839;51.946;21.002;2023-05-23T13:04:07;99785.19;;;28.52;28.07
50867;BME280;36839;51.946;21.002;2023-05-23T13:06:36;99775.39;;;28.63;28.38
50867;BME280;36839;51.946;21.002;2023-05-23T13:09:06;99777.69;;;28.78;28.87
50867;BME280;36839;51.946;21.002;2023-05-23T13:11:34;99774.61;;;28.82;28.25
50867;BME280;36839;51.946;21.002;2023-05-23T13:14:04;99769.09;;;28.85;27.92
50867;BME280;36839;51.946;21.002;2023-05-23T13:16:34;99767.91;;;29.00;28.22
50867;BME280;36839;51.946;21.002;2023-05-23T13:19:09;99762.61;;;29.07;27.70
50867;BME280;36839;51.946;21.002;2023-05-23T13:21:38;99761.48;;;29.09;26.11
50867;BME280;36839;51.946;21.002;2023-05-23T13:24:11;99761.23;;;29.15;24.91
50867;BME280;36839;51.946;21.002;2023-05-23T13:26:41;99761.78;;;29.36;25.50
50867;BME280;36839;51.946;21.002;2023-05-23T13:29:12;99759.34;;;29.46;27.05
50867;BME280;36839;51.946;21.002;2023-05-23T13:31:39;99762.02;;;29.38;26.23